BCS1AZ EETN-EBLG
Flight info
| Callsign | BCS1AZ |
|---|---|
| Flight time | N/A |
| Altitude | 36000 |
| Route | LONSA DCT DEREX DCT BIKRU DCT BERIM DCT ROBEG DCT ABAMI Z717 NEREL T855 LNO |
| Aircraft | A333/H-SDE3GHIJ2J3J5M1RVWXY/LB2D1 |
Departure
| Time | 2026-05-07 17:15 |
|---|---|
| Airport | Lennart Meri Tallinn Airport (EETN) |
Arrival
| Time | N/A |
|---|---|
| Airport | Liège Airport (EBLG) |
| Time | Latitude | Longitude | Altitude | Speed | Heading |
|---|---|---|---|---|---|
| 2026-05-07 16:47 | 59.41578 | 24.81004 | 142 ft | 0 kts | 179° |
| 2026-05-07 17:06 | 59.41570 | 24.81004 | 142 ft | 6 kts | 179° |
| 2026-05-07 17:07 | 59.41517 | 24.80989 | 142 ft | 3 kts | 217° |
| 2026-05-07 17:07 | 59.41510 | 24.80950 | 142 ft | 6 kts | 254° |
| 2026-05-07 17:07 | 59.41503 | 24.80817 | 142 ft | 14 kts | 268° |
| 2026-05-07 17:07 | 59.41504 | 24.80592 | 142 ft | 19 kts | 266° |
| 2026-05-07 17:08 | 59.41458 | 24.80489 | 142 ft | 7 kts | 179° |
| 2026-05-07 17:08 | 59.41452 | 24.80493 | 142 ft | 0 kts | 165° |
| 2026-05-07 17:13 | 59.41410 | 24.80539 | 142 ft | 11 kts | 143° |
| 2026-05-07 17:13 | 59.41348 | 24.80678 | 140 ft | 14 kts | 117° |
| 2026-05-07 17:13 | 59.41331 | 24.80843 | 141 ft | 9 kts | 90° |
| 2026-05-07 17:13 | 59.41331 | 24.80865 | 141 ft | 3 kts | 90° |
| 2026-05-07 17:14 | 59.41331 | 24.80935 | 140 ft | 7 kts | 90° |
| 2026-05-07 17:14 | 59.41331 | 24.81328 | 144 ft | 61 kts | 90° |
| 2026-05-07 17:14 | 59.41327 | 24.82583 | 140 ft | 121 kts | 90° |
| 2026-05-07 17:14 | 59.41328 | 24.84550 | 272 ft | 158 kts | 88° |
| 2026-05-07 17:15 | 59.41311 | 24.86695 | 1006 ft | 154 kts | 87° |
| 2026-05-07 17:15 | 59.41281 | 24.88784 | 1696 ft | 162 kts | 94° |
| 2026-05-07 17:15 | 59.40599 | 24.90781 | 1927 ft | 201 kts | 144° |
| 2026-05-07 17:15 | 59.39150 | 24.91373 | 2191 ft | 233 kts | 188° |
| 2026-05-07 17:16 | 59.37602 | 24.90082 | 2651 ft | 250 kts | 212° |
| 2026-05-07 17:16 | 59.36126 | 24.88344 | 3391 ft | 253 kts | 212° |
| 2026-05-07 17:16 | 59.34573 | 24.86684 | 4146 ft | 254 kts | 208° |
| 2026-05-07 17:16 | 59.32977 | 24.85154 | 4899 ft | 258 kts | 207° |
| 2026-05-07 17:17 | 59.31334 | 24.83692 | 5691 ft | 259 kts | 205° |
| 2026-05-07 17:17 | 59.29673 | 24.82280 | 6456 ft | 262 kts | 204° |
| 2026-05-07 17:17 | 59.27993 | 24.80886 | 7235 ft | 263 kts | 204° |
| 2026-05-07 17:17 | 59.26296 | 24.79498 | 7989 ft | 266 kts | 205° |
| 2026-05-07 17:18 | 59.24673 | 24.77879 | 8753 ft | 265 kts | 217° |
| 2026-05-07 17:18 | 59.23328 | 24.75453 | 9554 ft | 263 kts | 231° |
| 2026-05-07 17:18 | 59.22195 | 24.72651 | 10298 ft | 263 kts | 237° |
| 2026-05-07 17:18 | 59.21181 | 24.69679 | 10994 ft | 264 kts | 240° |
| 2026-05-07 17:19 | 59.20227 | 24.66605 | 11695 ft | 264 kts | 242° |
| 2026-05-07 17:19 | 59.19300 | 24.63504 | 12385 ft | 265 kts | 243° |
| 2026-05-07 17:19 | 59.18371 | 24.60383 | 13081 ft | 267 kts | 243° |
| 2026-05-07 17:19 | 59.17428 | 24.57261 | 13767 ft | 268 kts | 243° |
| 2026-05-07 17:20 | 59.16470 | 24.54135 | 14372 ft | 269 kts | 242° |
| 2026-05-07 17:20 | 59.15501 | 24.51013 | 14973 ft | 270 kts | 242° |
| 2026-05-07 17:20 | 59.14536 | 24.47934 | 15575 ft | 270 kts | 242° |
| 2026-05-07 17:20 | 59.13553 | 24.44815 | 16169 ft | 271 kts | 242° |
| 2026-05-07 17:21 | 59.12563 | 24.41683 | 16752 ft | 272 kts | 242° |
| 2026-05-07 17:21 | 59.11572 | 24.38549 | 17332 ft | 273 kts | 242° |
| 2026-05-07 17:21 | 59.10575 | 24.35402 | 17902 ft | 274 kts | 242° |
| 2026-05-07 17:21 | 59.09575 | 24.32249 | 18505 ft | 273 kts | 242° |
| 2026-05-07 17:22 | 59.08580 | 24.29115 | 18993 ft | 273 kts | 242° |
| 2026-05-07 17:22 | 59.07580 | 24.25963 | 19440 ft | 275 kts | 242° |
| 2026-05-07 17:22 | 59.06573 | 24.22794 | 19876 ft | 276 kts | 242° |
| 2026-05-07 17:22 | 59.05561 | 24.19608 | 20235 ft | 279 kts | 241° |
| 2026-05-07 17:23 | 59.04536 | 24.16389 | 20605 ft | 282 kts | 241° |
| 2026-05-07 17:23 | 59.03519 | 24.13200 | 21042 ft | 282 kts | 241° |
| 2026-05-07 17:23 | 59.02482 | 24.09957 | 21470 ft | 283 kts | 241° |
| 2026-05-07 17:23 | 59.01442 | 24.06710 | 21878 ft | 284 kts | 241° |
| 2026-05-07 17:24 | 59.00396 | 24.03449 | 22278 ft | 285 kts | 241° |
| 2026-05-07 17:24 | 58.99340 | 24.00156 | 22518 ft | 293 kts | 241° |
| 2026-05-07 17:24 | 58.98232 | 23.96697 | 22672 ft | 309 kts | 240° |
| 2026-05-07 17:24 | 58.97071 | 23.93077 | 22888 ft | 323 kts | 240° |
| 2026-05-07 17:25 | 58.95861 | 23.89312 | 23095 ft | 335 kts | 240° |
| 2026-05-07 17:25 | 58.94603 | 23.85413 | 23338 ft | 347 kts | 240° |
| 2026-05-07 17:25 | 58.93329 | 23.81478 | 23735 ft | 352 kts | 240° |
| 2026-05-07 17:25 | 58.92019 | 23.77445 | 24160 ft | 355 kts | 240° |
| 2026-05-07 17:26 | 58.90698 | 23.73383 | 24595 ft | 358 kts | 240° |
| 2026-05-07 17:26 | 58.89364 | 23.69287 | 25037 ft | 361 kts | 240° |
| 2026-05-07 17:26 | 58.88020 | 23.65166 | 25474 ft | 363 kts | 240° |
| 2026-05-07 17:26 | 58.86667 | 23.61021 | 25859 ft | 367 kts | 240° |
| 2026-05-07 17:27 | 58.85296 | 23.56827 | 26196 ft | 371 kts | 240° |
| 2026-05-07 17:27 | 58.83914 | 23.52607 | 26616 ft | 373 kts | 240° |
| 2026-05-07 17:27 | 58.82524 | 23.48368 | 27047 ft | 375 kts | 239° |
| 2026-05-07 17:27 | 58.81124 | 23.44108 | 27464 ft | 377 kts | 239° |
| 2026-05-07 17:28 | 58.79731 | 23.39877 | 27861 ft | 380 kts | 239° |
| 2026-05-07 17:28 | 58.78309 | 23.35568 | 28254 ft | 382 kts | 239° |
| 2026-05-07 17:28 | 58.76878 | 23.31235 | 28674 ft | 384 kts | 240° |
| 2026-05-07 17:28 | 58.75433 | 23.26872 | 28993 ft | 389 kts | 240° |
| 2026-05-07 17:29 | 58.73975 | 23.22474 | 29375 ft | 391 kts | 240° |
| 2026-05-07 17:29 | 58.72504 | 23.18048 | 29758 ft | 393 kts | 239° |
| 2026-05-07 17:29 | 58.71026 | 23.13607 | 30114 ft | 396 kts | 239° |
| 2026-05-07 17:29 | 58.69535 | 23.09137 | 30430 ft | 398 kts | 239° |
| 2026-05-07 17:30 | 58.68056 | 23.04710 | 30730 ft | 400 kts | 239° |
| 2026-05-07 17:30 | 58.66545 | 23.00195 | 30921 ft | 404 kts | 239° |
| 2026-05-07 17:30 | 58.65016 | 22.95638 | 31193 ft | 407 kts | 239° |
| 2026-05-07 17:30 | 58.63479 | 22.91065 | 31520 ft | 408 kts | 239° |
| 2026-05-07 17:31 | 58.61934 | 22.86480 | 31830 ft | 410 kts | 239° |
| 2026-05-07 17:31 | 58.60381 | 22.81877 | 32117 ft | 412 kts | 239° |
| 2026-05-07 17:31 | 58.58823 | 22.77269 | 32491 ft | 412 kts | 239° |
| 2026-05-07 17:31 | 58.57268 | 22.72680 | 32926 ft | 410 kts | 239° |
| 2026-05-07 17:32 | 58.55714 | 22.68105 | 33333 ft | 409 kts | 239° |
| 2026-05-07 17:32 | 58.54167 | 22.63554 | 33735 ft | 408 kts | 239° |
| 2026-05-07 17:32 | 58.52640 | 22.59072 | 34126 ft | 407 kts | 239° |
| 2026-05-07 17:32 | 58.51094 | 22.54544 | 34419 ft | 406 kts | 239° |
| 2026-05-07 17:33 | 58.49548 | 22.50023 | 34699 ft | 406 kts | 238° |
| 2026-05-07 17:33 | 58.48000 | 22.45502 | 34930 ft | 407 kts | 238° |
| 2026-05-07 17:33 | 58.46449 | 22.40984 | 35193 ft | 407 kts | 238° |
| 2026-05-07 17:33 | 58.44893 | 22.36460 | 35463 ft | 407 kts | 238° |
| 2026-05-07 17:34 | 58.43336 | 22.31941 | 35745 ft | 407 kts | 238° |
| 2026-05-07 17:34 | 58.41771 | 22.27409 | 35894 ft | 411 kts | 238° |
| 2026-05-07 17:34 | 58.40195 | 22.22852 | 36054 ft | 413 kts | 238° |
| 2026-05-07 17:34 | 58.38617 | 22.18299 | 36100 ft | 409 kts | 238° |
| 2026-05-07 17:35 | 58.35523 | 22.09402 | 36108 ft | 404 kts | 238° |
| 2026-05-07 17:35 | 58.32414 | 22.00490 | 36107 ft | 404 kts | 238° |
| 2026-05-07 17:36 | 58.29299 | 21.91593 | 36107 ft | 404 kts | 238° |
| 2026-05-07 17:36 | 58.26174 | 21.82702 | 36100 ft | 405 kts | 238° |
| 2026-05-07 17:37 | 58.23059 | 21.73873 | 36100 ft | 405 kts | 238° |
| 2026-05-07 17:37 | 58.19917 | 21.65000 | 36107 ft | 405 kts | 238° |
| 2026-05-07 17:38 | 58.16768 | 21.56142 | 36108 ft | 405 kts | 238° |
| 2026-05-07 17:38 | 58.13611 | 21.47293 | 36108 ft | 405 kts | 238° |
| 2026-05-07 17:39 | 58.10355 | 21.38201 | 36122 ft | 405 kts | 237° |
| 2026-05-07 17:39 | 58.07163 | 21.29321 | 36120 ft | 407 kts | 237° |
| 2026-05-07 17:40 | 58.03962 | 21.20448 | 36113 ft | 409 kts | 237° |
| 2026-05-07 17:40 | 58.00770 | 21.11632 | 36120 ft | 410 kts | 237° |
| 2026-05-07 17:41 | 57.97550 | 21.02774 | 36115 ft | 410 kts | 237° |
| 2026-05-07 17:41 | 57.95936 | 20.98347 | 36118 ft | 410 kts | 237° |